Time;durP1;ratioP1;P1;durP2;ratioP2;P2;SDS_P1;SDS_P2;PMS_P1;PMS_P2;Temp;Humidity;BMP_temperature;BMP_pressure;BME280_temperature;BME280_humidity;BME280_pressure;Samples;Min_cycle;Max_cycle;Signal;HPM_P1;HPM_P2
2022/06/15 00:01:31;;;;;;;12.55;9.70;;;;;;;16.56;64.97;101717.06;4928783;28;120454;-79
2022/06/15 00:04:00;;;;;;;15.98;10.18;;;;;;;16.61;65.14;101740.59;4962513;28;122343;-82
2022/06/15 00:06:29;;;;;;;13.90;10.77;;;;;;;16.64;65.24;101736.91;4960368;28;120158;-79
2022/06/15 00:08:58;;;;;;;17.45;11.05;;;;;;;16.63;65.13;101736.13;4945971;28;119845;-79
2022/06/15 00:11:26;;;;;;;16.40;11.27;;;;;;;16.60;65.31;101731.53;4930178;28;121952;-79
2022/06/15 00:13:57;;;;;;;14.48;8.85;;;;;;;16.55;64.58;101723.81;4928514;28;122980;-79
2022/06/15 00:16:23;;;;;;;15.70;10.35;;;;;;;16.53;64.38;101721.53;4917313;28;121069;-82
2022/06/15 00:18:50;;;;;;;14.93;9.20;;;;;;;16.52;64.87;101722.75;4929554;28;122940;-82
2022/06/15 00:21:17;;;;;;;16.27;10.23;;;;;;;16.54;64.75;101723.06;4941233;28;119826;-79
2022/06/15 00:23:44;;;;;;;19.92;11.40;;;;;;;16.51;65.03;101724.00;4927355;28;121864;-82
2022/06/15 00:26:13;;;;;;;16.48;10.48;;;;;;;16.50;64.75;101727.22;4927348;28;123540;-79
2022/06/15 00:28:39;;;;;;;19.42;12.35;;;;;;;16.46;65.19;101715.56;4927713;28;122272;-81
2022/06/15 00:31:06;;;;;;;19.17;11.85;;;;;;;16.52;65.41;101720.00;4928146;28;120604;-81
2022/06/15 00:33:32;;;;;;;14.90;11.45;;;;;;;16.50;65.49;101708.63;4927656;28;123183;-81
2022/06/15 00:36:07;;;;;;;20.60;12.30;;;;;;;16.44;65.16;101701.41;4927314;28;120499;-81
2022/06/15 00:38:37;;;;;;;18.75;12.57;;;;;;;16.54;65.25;101723.06;4947560;28;120543;-81
2022/06/15 00:41:27;;;;;;;18.52;12.38;;;;;;;16.55;65.41;101721.81;4952094;28;119769;-81
2022/06/15 00:43:55;;;;;;;16.67;12.50;;;;;;;16.54;65.27;101717.53;4910047;28;121666;-81
2022/06/15 00:46:38;;;;;;;19.92;12.48;;;;;;;16.54;65.29;101722.28;4960218;28;120068;-81
2022/06/15 00:49:20;;;;;;;19.63;12.77;;;;;;;16.50;65.08;101718.91;4927811;28;121619;-81
2022/06/15 00:51:51;;;;;;;16.80;12.23;;;;;;;16.47;65.36;101717.09;4943839;28;119792;-81
2022/06/15 00:54:18;;;;;;;15.10;11.82;;;;;;;16.50;65.25;101722.47;4928059;28;122492;-81
2022/06/15 00:56:44;;;;;;;16.67;10.23;;;;;;;16.41;64.60;101707.88;4913361;28;119658;-81
2022/06/15 00:59:15;;;;;;;15.95;11.02;;;;;;;16.39;64.92;101711.13;4928225;28;122021;-81
2022/06/15 01:01:43;;;;;;;14.63;9.80;;;;;;;16.38;64.54;101714.34;4948728;28;122964;-81
2022/06/15 01:04:09;;;;;;;13.93;10.55;;;;;;;16.39;64.40;101716.66;4926834;28;120266;-81
2022/06/15 01:06:58;;;;;;;18.40;11.52;;;;;;;16.32;64.16;101711.44;4945339;28;119981;-81
2022/06/15 01:09:35;;;;;;;15.45;11.23;;;;;;;16.28;64.29;101708.06;4940411;28;121348;-81
2022/06/15 01:12:20;;;;;;;16.02;10.90;;;;;;;16.27;64.32;101710.06;4908523;28;121745;-80
2022/06/15 01:15:32;;;;;;;17.58;12.35;;;;;;;16.24;64.45;101711.00;4925802;28;122931;-81
2022/06/15 01:18:18;;;;;;;18.90;13.32;;;;;;;16.18;64.88;101715.63;4922150;28;120830;-81
2022/06/15 01:20:56;;;;;;;20.33;12.52;;;;;;;16.22;64.79;101721.00;4948073;28;119439;-81
2022/06/15 01:23:50;;;;;;;19.80;12.48;;;;;;;16.17;64.56;101716.84;4918698;28;123943;-82
2022/06/15 01:27:19;;;;;;;19.83;12.68;;;;;;;16.17;65.21;101724.41;4930605;28;120473;-81
2022/06/15 01:30:10;;;;;;;20.05;13.93;;;;;;;16.17;65.44;101729.94;4911671;28;123693;-81
2022/06/15 01:33:26;;;;;;;20.05;12.60;;;;;;;16.12;65.21;101719.50;4909397;28;120020;-82
2022/06/15 01:35:55;;;;;;;14.48;10.05;;;;;;;16.13;65.01;101726.56;4878908;28;121551;-82
2022/06/15 01:38:25;;;;;;;14.25;9.52;;;;;;;16.10;64.54;101722.72;4912772;28;122034;-81
2022/06/15 01:40:59;;;;;;;13.95;9.75;;;;;;;16.07;64.42;101720.84;4930194;28;119699;-81
2022/06/15 01:43:33;;;;;;;19.63;12.30;;;;;;;16.03;64.07;101720.25;4909837;28;120371;-81
2022/06/15 01:45:59;;;;;;;16.98;13.35;;;;;;;16.01;64.27;101716.41;4895030;28;122633;-81
2022/06/15 01:48:55;;;;;;;18.20;13.70;;;;;;;16.00;65.04;101712.88;4870365;28;120318;-82
2022/06/15 01:51:26;;;;;;;19.75;13.48;;;;;;;16.00;65.15;101704.56;4867633;28;121387;-81
2022/06/15 01:54:25;;;;;;;19.13;13.13;;;;;;;15.94;65.01;101692.59;4890900;28;119682;-81
2022/06/15 01:56:55;;;;;;;18.48;13.10;;;;;;;15.99;65.20;101702.28;4906663;28;119642;-81
2022/06/15 01:59:45;;;;;;;20.88;14.25;;;;;;;15.99;65.05;101702.28;4929643;28;123241;-82
2022/06/15 02:02:14;;;;;;;17.58;13.20;;;;;;;15.95;65.16;101705.97;4929361;28;119905;-82
2022/06/15 02:05:06;;;;;;;17.52;12.70;;;;;;;15.94;65.24;101698.91;4935949;28;119980;-81
2022/06/15 02:07:39;;;;;;;19.30;13.63;;;;;;;15.90;65.32;101687.22;4948979;28;122696;-81
2022/06/15 02:10:32;;;;;;;19.70;13.15;;;;;;;15.90;65.26;101690.00;4928588;28;120743;-81
2022/06/15 02:13:08;;;;;;;16.77;13.13;;;;;;;15.87;65.23;101693.69;4948214;28;120608;-81
2022/06/15 02:15:40;;;;;;;19.42;13.40;;;;;;;15.91;65.10;101702.59;4949101;28;120237;-81
2022/06/15 02:18:11;;;;;;;18.65;13.70;;;;;;;15.85;64.89;101687.06;4917403;28;122248;-82
2022/06/15 02:20:45;;;;;;;17.33;12.85;;;;;;;15.89;65.40;101691.22;4915935;28;122070;-81
2022/06/15 02:23:13;;;;;;;18.45;13.18;;;;;;;15.85;65.41;101687.06;4930111;28;119905;-81
2022/06/15 02:25:44;;;;;;;19.05;12.80;;;;;;;15.81;65.03;101681.69;4915728;28;122791;-82
2022/06/15 02:28:18;;;;;;;16.65;12.73;;;;;;;15.84;65.32;101688.28;4944982;28;119927;-82
2022/06/15 02:30:46;;;;;;;17.15;13.07;;;;;;;15.88;65.33;101686.16;4917329;28;119546;-82
2022/06/15 02:33:45;;;;;;;19.70;12.23;;;;;;;15.85;64.94;101685.09;4934184;28;120332;-82
2022/06/15 02:36:11;;;;;;;19.52;12.70;;;;;;;15.86;65.05;101692.16;4952151;28;120255;-81
2022/06/15 02:38:36;;;;;;;17.58;12.27;;;;;;;15.79;64.59;101686.16;4944522;28;119795;-81
2022/06/15 02:41:02;;;;;;;19.98;12.57;;;;;;;15.83;64.40;101692.28;4915657;28;123331;-81
2022/06/15 02:43:31;;;;;;;18.08;12.02;;;;;;;15.80;64.58;101699.50;4929898;28;120073;-81
2022/06/15 02:45:59;;;;;;;19.02;12.10;;;;;;;15.71;64.73;101691.22;4935801;28;121852;-81
2022/06/15 02:48:30;;;;;;;20.08;12.40;;;;;;;15.74;64.78;101689.53;4936830;28;122965;-81
2022/06/15 02:51:14;;;;;;;17.75;12.32;;;;;;;15.77;65.13;101700.44;4939586;28;119593;-80
2022/06/15 02:53:43;;;;;;;19.60;12.88;;;;;;;15.77;65.27;101697.66;4931190;28;120536;-80
2022/06/15 02:56:14;;;;;;;18.27;12.63;;;;;;;15.72;65.39;101692.00;4913591;28;122958;-80
2022/06/15 02:58:43;;;;;;;17.58;12.43;;;;;;;15.75;65.44;101694.59;4931224;28;121885;-80
2022/06/15 03:01:10;;;;;;;19.05;12.63;;;;;;;15.73;65.16;101691.53;4931497;28;120572;-80
2022/06/15 03:03:57;;;;;;;19.27;12.10;;;;;;;15.70;65.26;101692.47;4911716;28;119897;-82
2022/06/15 03:06:27;;;;;;;20.75;13.07;;;;;;;15.75;65.56;101702.91;4931548;28;120069;-80
2022/06/15 03:08:57;;;;;;;15.05;12.65;;;;;;;15.70;65.80;101689.69;4933888;28;121362;-80
2022/06/15 03:11:53;;;;;;;18.55;12.57;;;;;;;15.74;65.66;101706.13;4950036;28;119626;-80
2022/06/15 03:14:38;;;;;;;;;;;;;;;15.72;65.41;101709.34;4951007;28;119501;-80
2022/06/15 03:17:09;;;;;;;19.05;12.52;;;;;;;15.74;65.73;101698.59;4935791;28;120113;-80
2022/06/15 03:19:52;;;;;;;14.77;11.68;;;;;;;15.75;65.68;101700.13;4942928;28;120217;-79
2022/06/15 03:22:18;;;;;;;19.05;13.30;;;;;;;15.70;65.54;101695.22;4948646;28;120171;-80
2022/06/15 03:24:47;;;;;;;21.02;12.77;;;;;;;15.75;65.48;101702.13;4916576;28;119779;-79
2022/06/15 03:27:14;;;;;;;21.20;12.98;;;;;;;15.69;65.72;101692.94;4928296;28;121876;-79
2022/06/15 03:29:42;;;;;;;18.35;12.50;;;;;;;15.70;65.42;101688.94;4935115;28;120075;-80
2022/06/15 03:32:14;;;;;;;16.15;12.65;;;;;;;15.76;65.38;101690.59;4936914;28;119672;-80
2022/06/15 03:34:51;;;;;;;19.75;12.07;;;;;;;15.72;65.72;101690.00;4934961;28;122512;-80
2022/06/15 03:37:17;;;;;;;21.75;12.15;;;;;;;15.75;65.73;101691.84;4938205;28;122802;-80
2022/06/15 03:39:44;;;;;;;20.63;12.75;;;;;;;15.79;65.68;101695.22;4929938;28;120182;-80
2022/06/15 03:42:17;;;;;;;18.92;12.02;;;;;;;15.80;65.94;101693.97;4917363;28;121912;-80
2022/06/15 03:44:44;;;;;;;14.68;10.38;;;;;;;15.85;65.62;101700.88;4948920;28;120441;-80
2022/06/15 03:47:20;;;;;;;13.75;10.35;;;;;;;15.83;65.54;101690.28;4930572;28;121946;-81
2022/06/15 03:49:51;;;;;;;16.02;10.75;;;;;;;15.89;65.47;101699.53;4920915;28;122400;-80
2022/06/15 03:52:19;;;;;;;15.75;11.40;;;;;;;15.93;65.52;101697.38;4934132;28;120085;-80
2022/06/15 03:54:45;;;;;;;19.38;12.32;;;;;;;15.95;66.28;101699.66;4927968;28;123226;-80
2022/06/15 03:57:13;;;;;;;18.08;12.35;;;;;;;16.04;66.18;101696.88;4936946;28;123354;-80
2022/06/15 03:59:40;;;;;;;20.10;12.30;;;;;;;16.07;66.29;101692.41;4930683;28;120002;-81
2022/06/15 04:02:25;;;;;;;18.65;11.52;;;;;;;16.19;66.06;101708.09;4938423;28;120372;-80
2022/06/15 04:04:51;;;;;;;21.55;11.55;;;;;;;16.24;65.84;101701.91;4929862;28;123544;-80
2022/06/15 04:10:02;;;;;;;15.57;10.10;;;;;;;16.33;65.63;101688.06;4930053;28;122929;-81
2022/06/15 04:12:29;;;;;;;14.52;10.43;;;;;;;16.45;65.56;101695.41;4931160;28;119720;-81
2022/06/15 04:15:16;;;;;;;22.08;16.23;;;;;;;16.43;65.27;101686.78;4923645;28;121194;-81
2022/06/15 04:17:46;;;;;;;16.55;11.10;;;;;;;16.49;65.32;101686.94;4940579;28;119846;-81
2022/06/15 04:20:48;;;;;;;14.95;10.75;;;;;;;16.54;65.21;101689.81;4943558;28;120040;-80
2022/06/15 04:23:21;;;;;;;15.23;10.75;;;;;;;16.60;65.00;101700.28;4931210;28;120424;-81
2022/06/15 04:25:51;;;;;;;13.55;10.52;;;;;;;16.61;65.37;101688.75;4925714;28;122873;-80
2022/06/15 04:28:21;;;;;;;16.05;10.52;;;;;;;16.65;65.43;101694.09;4935509;28;120249;-81
2022/06/15 04:30:48;;;;;;;14.77;10.18;;;;;;;16.67;65.53;101686.91;4923988;28;121965;-80
2022/06/15 04:33:15;;;;;;;12.50;9.48;;;;;;;16.66;65.74;101690.91;4944394;28;119993;-81
2022/06/15 04:35:43;;;;;;;19.35;9.93;;;;;;;16.64;65.58;101681.50;4931575;28;120663;-81
2022/06/15 04:38:13;;;;;;;13.43;9.52;;;;;;;16.68;65.67;101687.66;4924411;28;120540;-81
2022/06/15 04:40:52;;;;;;;17.02;10.32;;;;;;;16.75;65.87;101701.94;4930627;28;120867;-80
2022/06/15 04:43:20;;;;;;;15.30;10.43;;;;;;;16.76;66.30;101689.59;4931190;28;119883;-80
2022/06/15 04:45:45;;;;;;;17.38;10.65;;;;;;;16.75;66.73;101681.78;4950840;28;120168;-80
2022/06/15 04:48:29;;;;;;;19.83;10.90;;;;;;;16.85;66.91;101694.34;4941726;28;119823;-80
2022/06/15 04:50:56;;;;;;;16.70;11.13;;;;;;;16.88;67.08;101691.41;4931891;28;119919;-81
2022/06/15 04:53:27;;;;;;;18.05;11.07;;;;;;;16.92;67.17;101688.47;4951937;28;120009;-79
2022/06/15 04:55:59;;;;;;;15.25;11.15;;;;;;;16.97;67.02;101695.38;4949664;28;120447;-81
2022/06/15 04:58:24;;;;;;;20.35;12.40;;;;;;;16.99;67.19;101695.66;4909939;28;123495;-81
2022/06/15 05:00:56;;;;;;;20.00;12.48;;;;;;;17.04;67.43;101695.81;4923130;28;121964;-81
2022/06/15 05:03:33;;;;;;;19.83;12.23;;;;;;;17.08;67.65;101693.63;4930115;28;120790;-81
2022/06/15 05:06:11;;;;;;;20.65;12.45;;;;;;;17.18;67.40;101697.09;4900718;28;122935;-81
2022/06/15 05:08:37;;;;;;;16.67;11.02;;;;;;;17.13;67.58;101690.19;4932404;28;119971;-82
2022/06/15 05:11:04;;;;;;;18.70;7.53;;;;;;;17.23;67.34;101699.22;4927802;28;121577;-82
2022/06/15 05:13:32;;;;;;;16.80;6.68;;;;;;;17.26;67.11;101698.25;4948271;28;120901;-81
2022/06/15 05:16:00;;;;;;;14.45;6.80;;;;;;;17.35;67.01;101706.53;4931686;28;121884;-81
2022/06/15 05:18:47;;;;;;;17.85;6.80;;;;;;;17.39;66.74;101706.34;4924305;28;121481;-81
2022/06/15 05:21:18;;;;;;;13.57;6.45;;;;;;;17.37;66.88;101700.53;4946472;28;119628;-81
2022/06/15 05:23:44;;;;;;;19.55;6.68;;;;;;;17.45;66.50;101710.00;4928540;28;122035;-81
2022/06/15 05:26:13;;;;;;;17.23;6.50;;;;;;;17.42;66.39;101702.63;4927031;28;122829;-81
2022/06/15 05:28:44;;;;;;;22.00;7.05;;;;;;;17.48;66.50;101703.50;4953809;28;120179;-81
2022/06/15 05:31:28;;;;;;;15.50;6.22;;;;;;;17.49;66.27;101705.81;4938921;28;119698;-81
2022/06/15 05:33:57;;;;;;;13.65;6.20;;;;;;;17.52;65.93;101698.56;4918990;28;122858;-81
2022/06/15 05:36:29;;;;;;;14.52;6.40;;;;;;;17.52;66.10;101695.78;4924357;28;120097;-81
2022/06/15 05:38:56;;;;;;;16.77;6.10;;;;;;;17.60;66.09;101702.50;4930750;28;123228;-81
2022/06/15 05:41:24;;;;;;;15.60;6.97;;;;;;;17.59;66.04;101695.41;4953461;28;120437;-81
2022/06/15 05:43:56;;;;;;;14.20;6.03;;;;;;;17.62;66.03;101705.56;4929969;28;120078;-81
2022/06/15 05:46:30;;;;;;;12.73;5.68;;;;;;;17.64;66.39;101696.75;4943826;28;123271;-81
2022/06/15 05:49:07;;;;;;;14.27;5.93;;;;;;;17.74;66.50;101710.13;4913661;28;120303;-81
2022/06/15 05:51:33;;;;;;;15.32;5.50;;;;;;;17.77;66.25;101706.41;4923534;28;122745;-81
2022/06/15 05:54:17;;;;;;;13.93;5.45;;;;;;;17.83;66.17;101716.84;4952815;28;120191;-81
2022/06/15 05:56:44;;;;;;;17.23;5.85;;;;;;;17.86;65.74;101708.31;4940141;28;120395;-81
2022/06/15 05:59:09;;;;;;;14.45;4.63;;;;;;;17.89;65.42;101714.94;4914840;28;122897;-81
2022/06/15 06:01:37;;;;;;;11.45;4.15;;;;;;;17.88;65.01;101716.16;4938759;28;119995;-81
2022/06/15 06:04:03;;;;;;;14.70;4.82;;;;;;;17.96;65.05;101715.31;4936478;28;121065;-81
2022/06/15 06:06:30;;;;;;;14.10;4.65;;;;;;;17.99;64.59;101713.63;4945828;28;119980;-81
2022/06/15 06:08:56;;;;;;;12.75;4.72;;;;;;;18.01;63.85;101713.91;4917987;28;120336;-80
2022/06/15 06:11:22;;;;;;;13.27;4.82;;;;;;;18.00;64.41;101709.59;4949548;28;119936;-81
2022/06/15 06:14:08;;;;;;;11.07;4.63;;;;;;;18.05;64.76;101717.25;4944920;28;119925;-81
2022/06/15 06:16:34;;;;;;;8.40;4.15;;;;;;;18.14;64.72;101711.59;4936014;28;119884;-81
2022/06/15 06:19:00;;;;;;;12.30;3.97;;;;;;;18.17;64.16;101715.44;4934888;28;122497;-81
2022/06/15 06:21:48;;;;;;;12.07;4.03;;;;;;;18.18;63.72;101708.63;4935730;28;120669;-81
2022/06/15 06:24:14;;;;;;;10.45;4.25;;;;;;;18.24;64.30;101709.50;4931552;28;121796;-81
2022/06/15 06:26:42;;;;;;;11.80;4.30;;;;;;;18.31;64.84;101723.78;4952164;28;119880;-81
2022/06/15 06:29:12;;;;;;;10.15;4.03;;;;;;;18.39;64.58;101730.47;4933454;28;120341;-81
2022/06/15 06:31:37;;;;;;;12.88;4.35;;;;;;;18.41;64.12;101722.41;4945393;28;122014;-81
2022/06/15 06:34:05;;;;;;;9.75;3.80;;;;;;;18.41;63.62;101713.31;4935087;28;123382;-81
2022/06/15 06:36:45;;;;;;;10.82;3.80;;;;;;;18.43;62.81;101716.38;4935274;28;119624;-80
2022/06/15 06:39:25;;;;;;;9.48;3.80;;;;;;;18.44;62.24;101719.94;4950180;28;122256;-80
2022/06/15 06:41:52;;;;;;;14.52;4.18;;;;;;;18.50;61.51;101729.91;4957830;28;120309;-80
2022/06/15 06:44:19;;;;;;;11.70;3.90;;;;;;;18.51;61.20;101730.66;4919104;28;122184;-80
2022/06/15 06:46:46;;;;;;;10.32;3.80;;;;;;;18.41;61.17;101727.97;4946224;28;120255;-80
2022/06/15 06:49:13;;;;;;;13.00;3.80;;;;;;;18.52;61.99;101735.75;4930449;28;119921;-81
2022/06/15 06:51:39;;;;;;;10.55;3.90;;;;;;;18.58;62.10;101738.59;4909640;28;122310;-80
2022/06/15 06:54:17;;;;;;;9.82;3.83;;;;;;;18.63;61.39;101732.41;4929838;28;120036;-80
2022/06/15 06:57:01;;;;;;;8.10;3.55;;;;;;;18.66;61.67;101734.22;4937131;28;120182;-80
2022/06/15 06:59:27;;;;;;;10.60;4.22;;;;;;;18.71;61.40;101736.34;4952029;28;120624;-82
2022/06/15 07:01:53;;;;;;;12.27;4.13;;;;;;;18.69;61.14;101730.47;4934862;28;121742;-80
2022/06/15 07:04:19;;;;;;;12.15;3.85;;;;;;;18.64;61.64;101728.38;4927630;28;120085;-81
2022/06/15 07:06:45;;;;;;;10.52;3.47;;;;;;;18.75;61.88;101742.47;4951257;28;120014;-81
2022/06/15 07:09:12;;;;;;;12.57;3.75;;;;;;;18.77;61.94;101748.31;4937371;28;119721;-82
2022/06/15 07:11:40;;;;;;;11.68;4.15;;;;;;;18.75;61.10;101741.69;4936257;28;122681;-80
2022/06/15 07:14:07;;;;;;;12.20;3.97;;;;;;;18.82;60.90;101750.38;4936324;28;121274;-80
2022/06/15 07:16:32;;;;;;;10.85;4.10;;;;;;;18.84;60.90;101747.91;4938213;28;119944;-81
2022/06/15 07:18:58;;;;;;;9.32;3.58;;;;;;;18.86;60.76;101745.41;4936675;28;119699;-81
2022/06/15 07:21:27;;;;;;;10.63;3.47;;;;;;;18.87;61.36;101746.94;4929218;28;123351;-80
2022/06/15 07:23:55;;;;;;;8.32;3.35;;;;;;;18.87;61.05;101741.38;4927749;28;119963;-80
2022/06/15 07:26:38;;;;;;;9.35;3.97;;;;;;;18.88;61.51;101739.34;4937612;28;122230;-80
2022/06/15 07:29:03;;;;;;;8.70;3.63;;;;;;;18.90;59.05;101745.97;4949339;28;120726;-81
2022/06/15 07:31:36;;;;;;;13.57;3.53;;;;;;;18.95;59.71;101750.84;4952841;28;120921;-80
2022/06/15 07:34:03;;;;;;;9.27;3.22;;;;;;;18.99;59.05;101753.44;4933333;28;122938;-79
2022/06/15 07:36:31;;;;;;;7.82;3.28;;;;;;;19.06;59.63;101746.69;4954108;28;120091;-80
2022/06/15 07:38:58;;;;;;;7.07;3.35;;;;;;;19.11;59.96;101755.13;4954520;28;120525;-80
2022/06/15 07:41:25;;;;;;;10.10;3.60;;;;;;;19.15;59.66;101749.34;4936712;28;120308;-81
2022/06/15 07:43:52;;;;;;;8.75;3.05;;;;;;;19.16;58.44;101748.09;4927884;28;120075;-80
2022/06/15 07:46:21;;;;;;;12.30;3.30;;;;;;;19.15;58.88;101746.56;4936701;28;122554;-80
2022/06/15 07:51:35;;;;;;;9.55;4.00;;;;;;;19.35;59.03;101745.81;4951436;28;122199;-80
2022/06/15 07:54:04;;;;;;;11.50;3.88;;;;;;;19.38;59.61;101740.06;4928345;28;123066;-81
2022/06/15 07:56:31;;;;;;;9.15;3.30;;;;;;;19.47;58.73;101748.28;4930073;28;119765;-80
2022/06/15 07:58:56;;;;;;;8.70;3.78;;;;;;;19.41;59.28;101741.88;4928969;28;121196;-81
2022/06/15 08:01:23;;;;;;;12.45;3.55;;;;;;;19.40;58.79;101745.13;4924615;28;119990;-80
2022/06/15 08:03:50;;;;;;;9.45;3.35;;;;;;;19.34;58.08;101733.94;4933248;28;119611;-80
2022/06/15 08:06:17;;;;;;;8.35;3.25;;;;;;;19.40;58.91;101748.69;4933814;28;121131;-81
2022/06/15 08:08:43;;;;;;;6.13;3.25;;;;;;;19.35;58.52;101735.47;4952608;28;120300;-80
2022/06/15 08:11:09;;;;;;;7.18;3.17;;;;;;;19.38;58.13;101740.06;4947493;28;122117;-81
2022/06/15 08:13:35;;;;;;;7.60;3.08;;;;;;;19.41;58.27;101750.22;4931732;28;123068;-81
2022/06/15 08:16:02;;;;;;;9.90;3.60;;;;;;;19.39;58.75;101747.13;4939292;28;119657;-80
2022/06/15 08:18:31;;;;;;;8.40;3.05;;;;;;;19.36;57.35;101747.34;4927224;28;120408;-81
2022/06/15 08:21:06;;;;;;;8.23;2.97;;;;;;;19.32;58.14;101745.56;4936537;28;120505;-81
2022/06/15 08:23:36;;;;;;;8.30;3.10;;;;;;;19.35;57.54;101748.59;4943999;28;120219;-80
2022/06/15 08:26:24;;;;;;;7.65;3.13;;;;;;;19.29;57.13;101742.97;4945028;28;120282;-81
2022/06/15 08:28:53;;;;;;;9.15;3.63;;;;;;;19.33;56.97;101760.22;4950459;28;120342;-80
2022/06/15 08:31:19;;;;;;;9.40;2.90;;;;;;;19.38;57.09;101748.41;4938292;28;120527;-81
2022/06/15 08:33:45;;;;;;;7.75;3.22;;;;;;;19.55;57.04;101754.22;4928030;28;123986;-81
2022/06/15 08:36:46;;;;;;;11.65;3.17;;;;;;;19.71;55.59;101747.31;4890904;28;119695;-81
2022/06/15 08:39:12;;;;;;;10.18;3.30;;;;;;;19.86;56.88;101756.34;4893299;28;120304;-81
2022/06/15 08:42:16;;;;;;;18.98;3.30;;;;;;;19.87;56.11;101752.31;4847309;28;123847;-81
2022/06/15 08:44:57;;;;;;;9.45;2.90;;;;;;;19.87;56.11;101757.88;4870286;28;120023;-81
2022/06/15 08:47:52;;;;;;;8.93;3.03;;;;;;;19.85;56.23;101754.81;4879362;28;120557;-81
2022/06/15 08:50:35;;;;;;;7.43;3.30;;;;;;;19.80;55.69;101756.28;4871559;28;122909;-81
2022/06/15 08:53:50;;;;;;;8.27;3.20;;;;;;;19.80;56.54;101747.16;4879001;28;120011;-81
2022/06/15 08:56:29;;;;;;;9.38;3.05;;;;;;;19.78;56.80;101746.91;4876827;28;122412;-81
2022/06/15 08:59:03;;;;;;;8.18;3.35;;;;;;;19.85;56.06;101752.03;4901204;28;119583;-81
2022/06/15 09:01:40;;;;;;;9.75;2.90;;;;;;;19.80;55.60;101741.59;4925968;28;121643;-80
2022/06/15 09:04:09;;;;;;;9.60;3.67;;;;;;;19.88;56.65;101748.28;4927225;28;123230;-81
2022/06/15 09:06:45;;;;;;;9.50;3.05;;;;;;;19.95;55.16;101735.94;4909960;28;119963;-81
2022/06/15 09:09:24;;;;;;;6.32;2.80;;;;;;;20.12;54.96;101742.47;4920916;28;122514;-81
2022/06/15 09:15:17;;;;;;;5.85;2.47;;;;;;;20.55;54.13;101746.16;4946241;28;119745;-81
2022/06/15 09:17:46;;;;;;;7.25;3.00;;;;;;;20.67;53.99;101739.41;4946476;28;121910;-81
2022/06/15 09:20:23;;;;;;;7.35;2.83;;;;;;;20.67;53.06;101745.00;4917106;28;124163;-81
2022/06/15 09:22:59;;;;;;;7.95;2.50;;;;;;;20.61;52.45;101746.97;4947549;28;121982;-81
2022/06/15 09:25:37;;;;;;;4.32;2.60;;;;;;;20.53;51.77;101745.88;4954830;28;120012;-81
2022/06/15 09:28:08;;;;;;;4.63;2.40;;;;;;;20.42;51.45;101752.13;4946452;28;120071;-81
2022/06/15 09:30:41;;;;;;;8.10;2.40;;;;;;;20.32;50.82;101753.53;4946924;28;119565;-81
2022/06/15 09:33:40;;;;;;;4.63;2.60;;;;;;;20.23;51.80;101746.09;4960562;28;123294;-81
2022/06/15 09:36:16;;;;;;;7.65;2.97;;;;;;;20.16;52.06;101741.00;4944142;28;120813;-81
2022/06/15 09:38:42;;;;;;;7.65;2.78;;;;;;;20.07;52.78;101732.00;4936785;28;119933;-81
2022/06/15 09:41:49;;;;;;;7.68;2.83;;;;;;;20.04;53.35;101725.41;4923535;28;123853;-81
2022/06/15 09:44:37;;;;;;;7.35;3.25;;;;;;;20.15;53.52;101745.03;4822698;28;119660;-81
2022/06/15 09:47:48;;;;;;;6.88;2.65;;;;;;;20.13;52.96;101735.63;4932140;28;121990;-79
2022/06/15 09:50:36;;;;;;;11.73;3.05;;;;;;;20.13;53.14;101739.19;4927709;28;120011;-81
2022/06/15 09:53:37;;;;;;;6.20;2.70;;;;;;;20.12;53.90;101746.00;4945002;28;119973;-80
2022/06/15 09:56:11;;;;;;;6.13;2.38;;;;;;;20.10;53.41;101740.16;4910536;28;123037;-80
2022/06/15 09:58:43;;;;;;;8.77;2.75;;;;;;;20.10;53.19;101742.16;4930869;28;119952;-80
2022/06/15 10:01:11;;;;;;;6.63;2.60;;;;;;;20.12;53.82;101745.25;4935732;28;120858;-80
2022/06/15 10:03:44;;;;;;;7.47;2.88;;;;;;;20.11;53.87;101722.19;4933985;28;122965;-80
2022/06/15 10:06:47;;;;;;;6.60;2.93;;;;;;;20.18;53.19;101732.13;4957187;28;119946;-80
2022/06/15 10:09:19;;;;;;;6.68;2.58;;;;;;;20.19;53.19;101728.84;4833322;28;122600;-80
2022/06/15 10:11:49;;;;;;;5.85;2.35;;;;;;;20.19;53.05;101720.50;4935338;28;119984;-80
2022/06/15 10:14:31;;;;;;;9.52;2.30;;;;;;;20.24;53.32;101719.78;4947463;28;120085;-80
2022/06/15 10:17:00;;;;;;;5.82;1.88;;;;;;;20.32;50.62;101728.44;4918481;28;123171;-80
2022/06/15 10:19:33;;;;;;;4.30;1.73;;;;;;;20.40;51.75;101726.00;4949138;28;120167;-80
2022/06/15 10:22:08;;;;;;;4.45;1.77;;;;;;;20.43;51.69;101713.88;4920424;28;120899;-80
2022/06/15 10:24:40;;;;;;;3.80;1.58;;;;;;;20.45;52.17;101714.16;4953292;28;120099;-80
2022/06/15 10:27:41;;;;;;;5.30;1.75;;;;;;;20.45;52.21;101717.72;4943128;28;120172;-80
2022/06/15 10:30:07;;;;;;;4.90;1.85;;;;;;;20.46;52.21;101719.25;4936026;28;122592;-80
2022/06/15 10:32:33;;;;;;;5.03;1.83;;;;;;;20.48;53.13;101721.53;4936185;28;121297;-80
2022/06/15 10:35:02;;;;;;;4.10;1.60;;;;;;;20.50;52.17;101713.44;4952607;28;119585;-80
2022/06/15 10:38:02;;;;;;;4.25;1.63;;;;;;;20.56;53.04;101719.81;4933873;28;123212;-80
2022/06/15 10:40:39;;;;;;;4.15;1.67;;;;;;;20.55;53.35;101704.34;4935664;28;120047;-80
2022/06/15 10:43:32;;;;;;;4.50;1.30;;;;;;;20.59;49.22;101704.13;4943327;28;119994;-80
2022/06/15 10:46:04;;;;;;;3.40;1.48;;;;;;;20.61;51.77;101699.59;4928279;28;122842;-80
2022/06/15 10:48:46;;;;;;;2.95;1.50;;;;;;;20.64;51.69;101695.81;4945916;28;119744;-79
2022/06/15 10:51:27;;;;;;;8.10;1.88;;;;;;;20.70;50.34;101695.84;4931665;28;121236;-80
2022/06/15 10:54:30;;;;;;;4.10;1.60;;;;;;;20.80;50.51;101706.28;4949831;28;123220;-79
2022/06/15 11:03:25;;;;;;;6.18;1.52;;;;;;;20.94;49.76;101706.66;4947875;28;121169;-80
2022/06/15 11:05:57;;;;;;;6.45;1.80;;;;;;;20.94;50.33;101712.97;4944030;28;119637;-80
2022/06/15 11:08:29;;;;;;;4.25;1.42;;;;;;;20.88;50.36;101709.41;4926492;28;122599;-81
2022/06/15 11:11:12;;;;;;;6.22;1.38;;;;;;;20.87;50.32;101701.53;4944702;28;120523;-81
2022/06/15 11:13:45;;;;;;;5.78;1.70;;;;;;;20.83;50.57;101704.56;4943167;28;120896;-80
2022/06/15 11:19:53;;;;;;;5.32;1.50;;;;;;;20.80;50.02;101686.78;4899400;28;121914;-80
2022/06/15 11:22:23;;;;;;;4.40;1.55;;;;;;;20.83;49.94;101690.63;4878868;28;123201;-79
2022/06/15 11:24:57;;;;;;;4.30;1.35;;;;;;;20.86;49.17;101689.63;4882619;28;120309;-80
2022/06/15 11:27:31;;;;;;;3.00;1.48;;;;;;;20.93;50.07;101688.38;4864909;28;120621;-80
2022/06/15 11:30:03;;;;;;;4.93;1.40;;;;;;;20.94;49.51;101689.91;4850534;28;122629;-79
2022/06/15 11:32:35;;;;;;;3.70;1.67;;;;;;;20.95;49.44;101691.44;4848455;28;121503;-79
2022/06/15 11:35:11;;;;;;;4.65;1.50;;;;;;;21.00;48.07;101699.06;4883481;28;120403;-79
2022/06/15 11:38:18;;;;;;;5.53;1.70;;;;;;;21.05;48.64;101685.13;4878996;28;120505;-79
2022/06/15 11:40:50;;;;;;;4.50;1.55;;;;;;;21.17;49.66;101685.97;4823162;28;120490;-80
2022/06/15 11:43:16;;;;;;;5.20;1.48;;;;;;;21.22;49.79;101687.25;4871820;28;119974;-79
2022/06/15 11:45:50;;;;;;;5.00;1.60;;;;;;;21.30;50.08;101694.69;4851597;28;120240;-80
2022/06/15 11:48:26;;;;;;;3.28;1.23;;;;;;;21.38;50.96;101683.81;4893267;28;120669;-80
2022/06/15 11:51:29;;;;;;;5.32;1.70;;;;;;;21.42;49.73;101679.50;4958656;28;120298;-80
2022/06/15 11:54:21;;;;;;;4.45;1.40;;;;;;;21.37;48.71;101674.66;4943959;28;120917;-79
2022/06/15 11:57:04;;;;;;;5.72;1.65;;;;;;;21.41;49.16;101677.97;4920496;28;121202;-79
2022/06/15 11:59:44;;;;;;;3.50;1.57;;;;;;;21.33;47.46;101670.59;4940859;28;121528;-79
2022/06/15 12:02:32;;;;;;;2.50;1.57;;;;;;;21.33;49.17;101679.75;4944627;28;121336;-79